Time;durP1;ratioP1;P1;durP2;ratioP2;P2;SDS_P1;SDS_P2;PMS_P1;PMS_P2;Temp;Humidity;BMP_temperature;BMP_pressure;BME280_temperature;BME280_humidity;BME280_pressure;Samples;Min_cycle;Max_cycle;Signal;HPM_P1;HPM_P2
2023/01/11 00:01:03;;;;;;;0.65;0.43;;;6.00;96.20;;;;;;5149978;27;20214;-69
2023/01/11 00:03:31;;;;;;;0.30;0.20;;;6.00;96.40;;;;;;5145070;27;20216;-68
2023/01/11 00:05:59;;;;;;;0.95;0.47;;;5.80;99.90;;;;;;5128826;27;20201;-68
2023/01/11 00:08:27;;;;;;;0.40;0.30;;;6.00;96.50;;;;;;5141549;27;20309;-69
2023/01/11 00:10:54;;;;;;;0.30;0.20;;;6.00;96.80;;;;;;5148941;27;20244;-68
2023/01/11 00:13:21;;;;;;;0.50;0.50;;;6.00;96.90;;;;;;5148959;27;20555;-68
2023/01/11 00:15:49;;;;;;;0.60;0.60;;;6.00;97.00;;;;;;5130133;27;20207;-69
2023/01/11 00:18:16;;;;;;;0.57;0.57;;;5.90;97.00;;;;;;5148794;27;20759;-69
2023/01/11 00:20:43;;;;;;;0.43;0.43;;;6.00;97.00;;;;;;5149254;27;20222;-68
2023/01/11 00:23:10;;;;;;;0.40;0.40;;;6.10;97.10;;;;;;5138700;27;20189;-68
2023/01/11 00:25:37;;;;;;;0.30;0.20;;;6.00;97.20;;;;;;5129719;27;20212;-69
2023/01/11 00:28:05;;;;;;;0.30;0.30;;;6.20;97.40;;;;;;5130276;27;20211;-69
2023/01/11 00:30:32;;;;;;;0.30;0.20;;;6.20;97.40;;;;;;5145313;27;20210;-68
2023/01/11 00:33:00;;;;;;;0.32;0.32;;;6.20;97.70;;;;;;5148860;27;20208;-68
2023/01/11 00:35:30;;;;;;;0.30;0.30;;;6.20;97.70;;;;;;5130325;27;20223;-68
2023/01/11 00:37:57;;;;;;;2.17;0.80;;;6.30;98.20;;;;;;5142287;27;20783;-68
2023/01/11 00:40:25;;;;;;;0.80;0.40;;;6.20;98.50;;;;;;5131339;27;20202;-68
2023/01/11 00:48:22;;;;;;;0.40;0.30;;;6.20;98.80;;;;;;5128482;27;20201;-68
2023/01/11 00:50:49;;;;;;;0.40;0.32;;;6.30;98.40;;;;;;5129151;27;20225;-69
2023/01/11 00:53:17;;;;;;;0.90;0.40;;;6.30;99.90;;;;;;5134176;27;20206;-69
2023/01/11 00:55:43;;;;;;;0.30;0.20;;;6.30;98.50;;;;;;5145130;27;20216;-68
2023/01/11 00:58:10;;;;;;;0.63;0.60;;;6.30;98.50;;;;;;5135092;27;20193;-68
2023/01/11 01:00:37;;;;;;;0.30;0.25;;;5.90;99.90;;;;;;5149075;27;20197;-69
2023/01/11 01:03:04;;;;;;;0.30;0.20;;;6.30;98.70;;;;;;5135212;27;20211;-68
2023/01/11 01:05:32;;;;;;;0.30;0.20;;;6.10;99.90;;;;;;5128823;27;20200;-68
2023/01/11 01:07:59;;;;;;;0.40;0.30;;;6.30;98.90;;;;;;5147570;27;20200;-70
2023/01/11 01:10:25;;;;;;;4.97;1.08;;;6.40;99.90;;;;;;5148563;27;20228;-69
2023/01/11 01:15:37;;;;;;;1.25;0.30;;;6.40;99.20;;;;;;5128616;27;20609;-68
2023/01/11 01:18:04;;;;;;;0.40;0.30;;;6.40;99.50;;;;;;5128419;27;20201;-67
2023/01/11 01:20:32;;;;;;;0.30;0.30;;;6.40;99.50;;;;;;5128163;27;20724;-68
2023/01/11 01:22:58;;;;;;;0.60;0.30;;;6.20;99.90;;;;;;5136763;27;20201;-68
2023/01/11 01:25:25;;;;;;;0.30;0.30;;;6.30;99.90;;;;;;5149256;27;20211;-69
2023/01/11 01:27:52;;;;;;;0.30;0.20;;;6.30;99.90;;;;;;5147539;27;20192;-69
2023/01/11 01:30:19;;;;;;;0.40;0.35;;;6.30;99.90;;;;;;5148302;27;20228;-68
2023/01/11 01:32:45;;;;;;;0.40;0.30;;;6.20;99.90;;;;;;5146614;27;20196;-68
2023/01/11 01:35:12;;;;;;;0.40;0.40;;;6.30;99.90;;;;;;5133615;27;20198;-69
2023/01/11 01:37:40;;;;;;;0.30;0.20;;;6.30;99.90;;;;;;5134689;27;20288;-69
2023/01/11 01:40:08;;;;;;;0.50;0.50;;;6.30;99.90;;;;;;5141002;27;20216;-69
2023/01/11 01:42:35;;;;;;;0.30;0.25;;;6.30;99.90;;;;;;5143902;27;20197;-68
2023/01/11 01:45:06;;;;;;;0.40;0.38;;;6.20;99.90;;;;;;5128186;28;20595;-69
2023/01/11 01:47:42;;;;;;;0.30;0.30;;;6.20;99.90;;;;;;5132658;27;20667;-68
2023/01/11 01:50:14;;;;;;;0.40;0.30;;;6.20;99.90;;;;;;5130034;27;20216;-69
2023/01/11 01:52:46;;;;;;;0.30;0.20;;;6.20;99.90;;;;;;5137039;27;20193;-69
2023/01/11 01:55:19;;;;;;;0.30;0.20;;;6.30;99.90;;;;;;5153057;27;20231;-68
2023/01/11 01:57:46;;;;;;;0.30;0.20;;;6.40;99.90;;;;;;5151914;27;20605;-68
2023/01/11 02:00:13;;;;;;;0.52;0.32;;;6.20;99.90;;;;;;5131878;27;20197;-68
2023/01/11 02:02:43;;;;;;;0.30;0.20;;;6.30;99.90;;;;;;5131397;27;20199;-68
2023/01/11 02:05:10;;;;;;;0.40;0.30;;;6.30;99.90;;;;;;5151657;27;20219;-68
2023/01/11 02:07:42;;;;;;;0.30;0.30;;;6.30;99.90;;;;;;5135260;27;20686;-69
2023/01/11 02:10:14;;;;;;;0.45;0.30;;;6.30;99.90;;;;;;5132670;27;20720;-68
2023/01/11 02:12:45;;;;;;;0.30;0.20;;;6.50;99.90;;;;;;5134274;27;20820;-68
2023/01/11 02:15:14;;;;;;;0.30;0.20;;;6.30;99.90;;;;;;5152422;27;20288;-69
2023/01/11 02:17:41;;;;;;;5.78;0.40;;;6.40;99.90;;;;;;5152592;27;20199;-68
2023/01/11 02:20:31;;;;;;;0.40;0.38;;;6.40;99.90;;;;;;5152156;27;20205;-69
2023/01/11 02:23:48;;;;;;;0.30;0.30;;;6.50;99.90;;;;;;5151084;27;20283;-68
2023/01/11 02:27:10;;;;;;;0.38;0.28;;;6.60;99.90;;;;;;5151800;27;20205;-68
2023/01/11 02:29:51;;;;;;;0.52;0.30;;;6.70;99.90;;;;;;5128793;27;20201;-68
2023/01/11 02:32:26;;;;;;;0.30;0.20;;;6.60;99.90;;;;;;5132219;27;20544;-68
2023/01/11 02:35:04;;;;;;;0.30;0.20;;;6.60;99.90;;;;;;5152064;27;20192;-68
2023/01/11 02:37:42;;;;;;;0.30;0.20;;;6.60;99.90;;;;;;5151348;27;20196;-68
2023/01/11 02:40:21;;;;;;;0.30;0.20;;;7.30;99.90;;;;;;5134762;27;20201;-69
2023/01/11 02:45:48;;;;;;;0.40;0.40;;;6.70;99.90;;;;;;5152052;27;20569;-69
2023/01/11 02:48:25;;;;;;;0.30;0.20;;;6.60;99.90;;;;;;5150977;27;20374;-70
2023/01/11 02:50:58;;;;;;;0.30;0.28;;;6.70;99.90;;;;;;5151763;27;20326;-69
2023/01/11 02:53:32;;;;;;;0.40;0.30;;;6.70;99.90;;;;;;5148710;27;20196;-68
2023/01/11 02:56:05;;;;;;;0.60;0.30;;;6.60;99.90;;;;;;5151407;27;20675;-68
2023/01/11 02:58:35;;;;;;;0.30;0.20;;;6.70;99.90;;;;;;5130976;27;20197;-68
2023/01/11 03:01:04;;;;;;;0.30;0.30;;;6.70;99.90;;;;;;5130153;27;20193;-68
2023/01/11 03:03:32;;;;;;;3.97;0.57;;;6.70;99.90;;;;;;5132287;27;20197;-68
2023/01/11 03:06:04;;;;;;;0.30;0.20;;;6.70;99.90;;;;;;5145928;27;20798;-68
2023/01/11 03:08:51;;;;;;;0.30;0.20;;;6.70;99.90;;;;;;5136182;27;20276;-68
2023/01/11 03:12:50;;;;;;;0.30;0.10;;;6.60;99.90;;;;;;5150119;27;20269;-68
2023/01/11 03:14:26;;;;;;;1.50;0.43;;;6.80;99.90;;;;;;5133385;27;20216;-69
2023/01/11 03:17:05;;;;;;;0.30;0.30;;;6.90;99.90;;;;;;5132023;27;20285;-69
2023/01/11 03:19:39;;;;;;;0.40;0.25;;;6.90;99.90;;;;;;5130405;27;20197;-68
2023/01/11 03:22:15;;;;;;;0.30;0.30;;;7.00;99.90;;;;;;5131584;27;20633;-70
2023/01/11 03:24:48;;;;;;;0.65;0.22;;;6.90;99.90;;;;;;5151507;27;20196;-68
2023/01/11 03:27:25;;;;;;;0.30;0.20;;;6.90;99.90;;;;;;5143536;27;20197;-69
2023/01/11 03:29:58;;;;;;;0.30;0.20;;;7.00;99.90;;;;;;5131954;27;20204;-68
2023/01/11 03:32:36;;;;;;;0.30;0.20;;;7.00;99.90;;;;;;5144087;27;20197;-68
2023/01/11 03:35:15;;;;;;;0.30;0.30;;;7.00;99.90;;;;;;5141641;27;20211;-69
2023/01/11 03:37:50;;;;;;;1.33;0.30;;;7.00;99.90;;;;;;5136720;27;20205;-68
2023/01/11 03:40:23;;;;;;;0.40;0.30;;;7.00;99.90;;;;;;5131491;27;20567;-68
2023/01/11 03:43:10;;;;;;;0.30;0.20;;;7.00;99.90;;;;;;5134057;27;20748;-69
2023/01/11 03:45:42;;;;;;;0.30;0.10;;;6.50;99.90;;;;;;5150207;27;20201;-68
2023/01/11 03:48:16;;;;;;;0.40;0.20;;;7.00;99.90;;;;;;5149356;27;20954;-69
2023/01/11 03:50:47;;;;;;;0.30;0.20;;;7.00;99.90;;;;;;5149563;27;20257;-69
2023/01/11 03:53:18;;;;;;;0.40;0.30;;;6.80;99.90;;;;;;5142781;27;20201;-68
2023/01/11 03:55:51;;;;;;;0.30;0.20;;;6.90;99.90;;;;;;5129118;27;20190;-69
2023/01/11 03:58:18;;;;;;;0.40;0.40;;;6.90;99.90;;;;;;5129031;27;20463;-68
2023/01/11 04:00:47;;;;;;;0.30;0.20;;;7.10;99.90;;;;;;5128721;27;20225;-68
2023/01/11 04:03:15;;;;;;;0.30;0.20;;;7.00;99.90;;;;;;5134561;27;20228;-68
2023/01/11 04:05:44;;;;;;;0.70;0.20;;;7.00;99.90;;;;;;5149475;27;20632;-70
2023/01/11 04:08:11;;;;;;;0.40;0.38;;;6.90;99.90;;;;;;5143555;27;20197;-68
2023/01/11 04:10:39;;;;;;;0.30;0.22;;;7.00;99.90;;;;;;5129817;27;20229;-68
2023/01/11 04:13:05;;;;;;;1.20;1.10;;;7.00;99.90;;;;;;5133080;27;20666;-68
2023/01/11 04:15:33;;;;;;;0.30;0.20;;;7.10;99.90;;;;;;5131471;27;20193;-69
2023/01/11 04:18:03;;;;;;;0.30;0.20;;;6.90;99.90;;;;;;5129607;27;20605;-68
2023/01/11 04:20:32;;;;;;;2.95;0.35;;;7.10;99.90;;;;;;5129018;27;20204;-68
2023/01/11 04:22:59;;;;;;;0.30;0.30;;;7.00;99.90;;;;;;5131877;27;20283;-68
2023/01/11 04:25:25;;;;;;;0.30;0.20;;;7.00;99.90;;;;;;5149370;27;20662;-69
2023/01/11 04:27:52;;;;;;;0.30;0.30;;;7.00;99.90;;;;;;5148836;27;20208;-69
2023/01/11 04:30:19;;;;;;;0.40;0.25;;;7.00;99.90;;;;;;5128561;27;20372;-68
2023/01/11 04:32:46;;;;;;;0.30;0.20;;;6.90;99.90;;;;;;5134864;27;20189;-68
2023/01/11 04:35:13;;;;;;;0.30;0.30;;;7.00;99.90;;;;;;5129641;27;20200;-69
2023/01/11 04:37:41;;;;;;;0.30;0.30;;;7.00;99.90;;;;;;5140337;27;20243;-69
2023/01/11 04:40:09;;;;;;;0.30;0.20;;;7.00;99.90;;;;;;5143498;27;20219;-69
2023/01/11 04:42:35;;;;;;;0.30;0.20;;;7.00;99.90;;;;;;5145575;27;20207;-68
2023/01/11 04:45:04;;;;;;;0.30;0.20;;;7.00;99.90;;;;;;5127928;27;20193;-68
2023/01/11 04:47:31;;;;;;;2.85;0.35;;;7.10;99.90;;;;;;5128267;27;20193;-70
2023/01/11 04:49:58;;;;;;;0.40;0.35;;;7.10;99.90;;;;;;5128116;27;20615;-68
2023/01/11 04:52:25;;;;;;;0.30;0.20;;;7.10;99.90;;;;;;5129100;27;20225;-68
2023/01/11 04:54:53;;;;;;;0.40;0.20;;;7.10;99.90;;;;;;5134062;27;20710;-69
2023/01/11 04:57:20;;;;;;;0.30;0.20;;;7.10;99.90;;;;;;5144719;27;20211;-69
2023/01/11 04:59:47;;;;;;;0.30;0.20;;;7.20;99.90;;;;;;5143843;27;20197;-69
2023/01/11 05:02:14;;;;;;;0.30;0.20;;;7.40;99.90;;;;;;5143597;27;20667;-68
2023/01/11 05:04:41;;;;;;;0.30;0.20;;;7.40;99.90;;;;;;5147285;27;20204;-69
2023/01/11 05:07:08;;;;;;;0.30;0.20;;;7.40;99.90;;;;;;5147946;27;20275;-68
2023/01/11 05:09:35;;;;;;;0.43;0.40;;;7.30;99.90;;;;;;5128602;27;20241;-68
2023/01/11 05:12:04;;;;;;;0.30;0.20;;;7.30;99.90;;;;;;5128490;27;20756;-69
2023/01/11 05:14:30;;;;;;;0.30;0.20;;;7.20;99.90;;;;;;5146615;27;20622;-69
2023/01/11 05:16:57;;;;;;;0.30;0.10;;;7.30;99.90;;;;;;5131557;27;20200;-68
2023/01/11 05:19:24;;;;;;;0.30;0.20;;;7.30;99.90;;;;;;5126924;27;20600;-68
2023/01/11 05:21:51;;;;;;;0.30;0.30;;;7.30;99.90;;;;;;5144486;27;20289;-69
2023/01/11 05:24:18;;;;;;;0.30;0.30;;;7.30;99.90;;;;;;5130838;27;20201;-69
2023/01/11 05:26:47;;;;;;;0.30;0.30;;;7.30;99.90;;;;;;5127279;27;20575;-69
2023/01/11 05:29:16;;;;;;;0.40;0.20;;;7.30;99.90;;;;;;5141135;27;20737;-70
2023/01/11 05:31:43;;;;;;;0.30;0.20;;;7.40;99.90;;;;;;5147246;27;20669;-68
2023/01/11 05:34:11;;;;;;;0.30;0.20;;;7.40;99.90;;;;;;5140286;27;20202;-68
2023/01/11 05:36:38;;;;;;;0.30;0.20;;;7.40;99.90;;;;;;5142508;27;20659;-68
2023/01/11 05:39:05;;;;;;;0.30;0.20;;;7.30;99.90;;;;;;5127160;27;20291;-70
2023/01/11 05:41:32;;;;;;;0.30;0.22;;;7.30;99.90;;;;;;5140044;27;20189;-68
2023/01/11 05:46:45;;;;;;;0.70;0.47;;;7.20;99.90;;;;;;5127984;27;20213;-69
2023/01/11 05:49:13;;;;;;;0.83;0.30;;;7.20;99.90;;;;;;5130757;27;20219;-69
2023/01/11 05:51:40;;;;;;;1.48;1.38;;;7.20;99.90;;;;;;5127067;27;20669;-69
2023/01/11 05:54:10;;;;;;;0.30;0.20;;;7.20;99.90;;;;;;5128641;27;20207;-70
2023/01/11 05:56:37;;;;;;;0.30;0.20;;;7.30;99.90;;;;;;5127981;27;20629;-68
2023/01/11 05:59:04;;;;;;;0.30;0.30;;;7.30;99.90;;;;;;5138416;27;20208;-69
2023/01/11 06:01:32;;;;;;;0.30;0.20;;;7.30;99.90;;;;;;5143173;27;21011;-68
2023/01/11 06:04:00;;;;;;;0.30;0.20;;;7.30;99.90;;;;;;5132195;27;20201;-68
2023/01/11 06:06:27;;;;;;;0.30;0.20;;;7.20;99.90;;;;;;5127173;28;21211;-68
2023/01/11 06:08:54;;;;;;;0.57;0.20;;;7.20;99.90;;;;;;5138047;27;20670;-69
2023/01/11 06:11:20;;;;;;;0.50;0.50;;;7.30;99.90;;;;;;5148032;27;20653;-69
2023/01/11 06:13:47;;;;;;;0.30;0.30;;;7.40;99.90;;;;;;5144662;27;20673;-69
2023/01/11 06:16:16;;;;;;;0.30;0.20;;;7.40;99.90;;;;;;5127645;27;20190;-69
2023/01/11 06:18:45;;;;;;;0.30;0.25;;;7.40;99.90;;;;;;5136630;27;20203;-69
2023/01/11 06:21:14;;;;;;;0.40;0.33;;;7.40;99.90;;;;;;5146590;27;20284;-67
2023/01/11 06:23:43;;;;;;;0.40;0.40;;;7.40;99.90;;;;;;5146205;27;20629;-67
2023/01/11 06:26:13;;;;;;;0.30;0.20;;;7.40;99.90;;;;;;5146882;27;20242;-66
2023/01/11 06:28:40;;;;;;;0.40;0.30;;;7.50;99.90;;;;;;5127461;27;21419;-68
2023/01/11 06:31:07;;;;;;;0.30;0.20;;;7.60;99.90;;;;;;5147628;27;20230;-69
2023/01/11 06:33:35;;;;;;;0.30;0.20;;;7.50;99.90;;;;;;5139231;27;20201;-67
2023/01/11 06:36:04;;;;;;;0.30;0.30;;;7.60;99.90;;;;;;5140380;27;20208;-68
2023/01/11 06:38:33;;;;;;;0.85;0.45;;;7.50;99.90;;;;;;5140360;27;20277;-68
2023/01/11 06:41:01;;;;;;;0.30;0.20;;;7.50;99.90;;;;;;5141278;27;20201;-67
2023/01/11 06:43:30;;;;;;;0.57;0.35;;;7.50;99.90;;;;;;5141299;27;20201;-68
2023/01/11 06:45:57;;;;;;;0.30;0.20;;;7.30;99.90;;;;;;5138444;27;20203;-69
2023/01/11 06:48:25;;;;;;;0.30;0.20;;;7.50;99.90;;;;;;5136369;27;20289;-70
2023/01/11 06:50:53;;;;;;;0.40;0.20;;;7.50;99.90;;;;;;5134935;27;20621;-70
2023/01/11 06:53:21;;;;;;;0.30;0.30;;;7.60;99.90;;;;;;5141297;27;20534;-69
2023/01/11 06:55:51;;;;;;;0.50;0.20;;;7.60;99.90;;;;;;5135280;27;20703;-69
2023/01/11 06:58:18;;;;;;;0.30;0.28;;;7.60;99.90;;;;;;5142826;27;20625;-69
2023/01/11 07:00:45;;;;;;;0.40;0.30;;;7.60;99.90;;;;;;5130167;27;20199;-69
2023/01/11 07:03:12;;;;;;;0.30;0.20;;;7.60;99.90;;;;;;5131048;27;20189;-69
2023/01/11 07:05:41;;;;;;;0.30;0.30;;;7.60;99.90;;;;;;5131000;27;20200;-69
2023/01/11 07:08:07;;;;;;;0.60;0.60;;;7.70;99.90;;;;;;5134097;27;20657;-70
2023/01/11 07:10:34;;;;;;;0.50;0.30;;;7.70;99.90;;;;;;5149803;27;20630;-69
2023/01/11 07:13:02;;;;;;;0.40;0.30;;;7.50;99.90;;;;;;5145489;27;20662;-69
2023/01/11 07:15:29;;;;;;;0.30;0.23;;;7.80;99.90;;;;;;5130427;27;20621;-69
2023/01/11 07:17:57;;;;;;;0.75;0.47;;;7.70;99.90;;;;;;5130458;27;21005;-69
2023/01/11 07:20:24;;;;;;;0.40;0.38;;;7.70;99.90;;;;;;5138171;27;20274;-69
2023/01/11 07:22:51;;;;;;;0.40;0.23;;;7.70;99.90;;;;;;5144142;27;20196;-69
2023/01/11 07:25:18;;;;;;;0.47;0.30;;;7.90;99.90;;;;;;5149686;27;20632;-70
2023/01/11 07:27:45;;;;;;;0.30;0.20;;;7.90;99.90;;;;;;5112136;27;20630;-69
2023/01/11 07:30:14;;;;;;;0.30;0.30;;;7.70;99.90;;;;;;5130890;27;20621;-69
2023/01/11 07:32:40;;;;;;;0.40;0.40;;;7.70;99.90;;;;;;5129540;27;20769;-69
2023/01/11 07:35:08;;;;;;;0.30;0.20;;;7.80;99.90;;;;;;5140569;27;20626;-69
2023/01/11 07:37:40;;;;;;;0.60;0.30;;;7.80;99.90;;;;;;5150298;27;20670;-69
2023/01/11 07:40:08;;;;;;;0.77;0.50;;;7.80;99.90;;;;;;5134000;27;20681;-69
2023/01/11 07:45:20;;;;;;;0.30;0.20;;;7.90;99.90;;;;;;5141746;27;20630;-69
2023/01/11 07:47:49;;;;;;;0.50;0.40;;;8.00;99.90;;;;;;5142332;27;20626;-68
2023/01/11 07:50:17;;;;;;;0.30;0.20;;;8.00;99.90;;;;;;5149414;27;21178;-69
2023/01/11 07:52:47;;;;;;;0.30;0.20;;;8.10;99.90;;;;;;5142748;27;20658;-69
2023/01/11 07:55:14;;;;;;;1.27;0.40;;;8.10;99.90;;;;;;5149637;27;20657;-68
2023/01/11 07:57:41;;;;;;;0.30;0.20;;;8.20;99.90;;;;;;5150392;27;20685;-69
2023/01/11 08:00:09;;;;;;;0.30;0.20;;;8.20;99.90;;;;;;5149193;27;21326;-69
2023/01/11 08:02:37;;;;;;;0.47;0.30;;;8.20;99.90;;;;;;5150373;27;20625;-68
2023/01/11 08:05:04;;;;;;;0.60;0.57;;;8.20;99.90;;;;;;5147848;27;20640;-69
2023/01/11 08:07:31;;;;;;;0.40;0.30;;;8.20;99.90;;;;;;5147322;27;20650;-70
2023/01/11 08:09:57;;;;;;;0.30;0.20;;;8.30;99.90;;;;;;5129307;27;20622;-69
2023/01/11 08:15:08;;;;;;;0.30;0.20;;;8.40;99.90;;;;;;5094285;27;20625;-69
2023/01/11 08:17:37;;;;;;;1.17;0.40;;;8.80;99.90;;;;;;5129886;27;20603;-69
2023/01/11 08:20:04;;;;;;;0.30;0.20;;;8.40;99.90;;;;;;5148201;27;20721;-68
2023/01/11 08:22:31;;;;;;;0.30;0.30;;;8.50;99.90;;;;;;5148029;27;20614;-69
2023/01/11 08:24:58;;;;;;;3.10;1.23;;;8.50;99.90;;;;;;5130678;27;20619;-68
2023/01/11 08:27:25;;;;;;;3.40;0.40;;;8.60;99.90;;;;;;5138650;27;20619;-69
2023/01/11 08:29:52;;;;;;;0.53;0.53;;;8.50;99.90;;;;;;5142952;27;20687;-70
2023/01/11 08:32:18;;;;;;;0.30;0.30;;;8.70;99.90;;;;;;5140155;27;20650;-69
2023/01/11 08:34:47;;;;;;;0.40;0.40;;;8.70;99.90;;;;;;5129428;27;20626;-69
2023/01/11 08:37:13;;;;;;;0.53;0.30;;;8.80;99.90;;;;;;5134020;27;20709;-69
2023/01/11 08:39:40;;;;;;;2.17;0.40;;;8.80;99.90;;;;;;5140706;27;20634;-69
2023/01/11 08:42:07;;;;;;;0.50;0.30;;;8.90;99.90;;;;;;5137684;27;20607;-70
2023/01/11 08:44:34;;;;;;;0.40;0.40;;;8.60;99.90;;;;;;5140330;27;20949;-69
2023/01/11 08:47:01;;;;;;;0.40;0.30;;;8.80;99.90;;;;;;5133697;27;21239;-68
2023/01/11 08:49:29;;;;;;;0.43;0.40;;;8.80;99.90;;;;;;5136947;27;21269;-69
2023/01/11 08:51:57;;;;;;;0.60;0.30;;;8.80;99.90;;;;;;5128780;27;20679;-68
2023/01/11 08:54:24;;;;;;;0.37;0.30;;;8.80;99.90;;;;;;5129164;27;21207;-69
2023/01/11 08:56:51;;;;;;;0.50;0.30;;;8.90;99.90;;;;;;5130000;27;20634;-68
2023/01/11 08:59:20;;;;;;;0.30;0.20;;;8.80;99.90;;;;;;5127355;27;20611;-68
2023/01/11 09:01:47;;;;;;;0.83;0.80;;;9.00;99.90;;;;;;5133899;27;20618;-68
2023/01/11 09:04:14;;;;;;;0.40;0.20;;;9.00;99.90;;;;;;5148801;27;20617;-69
2023/01/11 09:06:41;;;;;;;0.30;0.20;;;9.10;99.90;;;;;;5149289;27;21194;-68
2023/01/11 09:09:09;;;;;;;0.30;0.30;;;9.10;99.90;;;;;;5136353;27;20626;-70
2023/01/11 09:11:55;;;;;;;1.07;0.43;;;9.20;99.90;;;;;;5144582;27;20621;-69
2023/01/11 09:14:23;;;;;;;0.30;0.20;;;9.30;99.90;;;;;;5147632;27;20625;-69
2023/01/11 09:16:50;;;;;;;0.50;0.47;;;9.30;99.90;;;;;;5148539;27;20614;-69
2023/01/11 09:19:17;;;;;;;0.73;0.33;;;9.50;99.90;;;;;;5134965;27;20666;-69
2023/01/11 09:21:45;;;;;;;0.30;0.30;;;9.30;99.90;;;;;;5143193;27;20629;-68
2023/01/11 09:24:13;;;;;;;2.10;0.47;;;9.30;99.90;;;;;;5147274;27;20618;-69
2023/01/11 09:26:42;;;;;;;0.40;0.40;;;9.30;99.90;;;;;;5141112;27;20714;-69
2023/01/11 09:29:09;;;;;;;0.80;0.60;;;9.40;99.90;;;;;;5148344;27;20866;-69
2023/01/11 09:31:36;;;;;;;0.30;0.20;;;9.40;99.90;;;;;;5147137;27;20621;-69
2023/01/11 09:34:03;;;;;;;0.57;0.30;;;9.40;99.90;;;;;;5136683;27;21211;-69
2023/01/11 09:36:32;;;;;;;0.77;0.63;;;9.40;99.90;;;;;;5144609;27;20624;-69
2023/01/11 09:39:01;;;;;;;0.40;0.40;;;9.40;99.90;;;;;;5133644;27;21507;-69
2023/01/11 09:41:40;;;;;;;0.73;0.73;;;9.40;99.90;;;;;;5138622;27;20621;-69
2023/01/11 09:44:13;;;;;;;0.30;0.20;;;9.40;99.90;;;;;;5130385;27;20623;-70
2023/01/11 09:46:42;;;;;;;0.30;0.20;;;9.40;99.90;;;;;;5126386;28;21383;-69
2023/01/11 09:49:16;;;;;;;0.50;0.40;;;9.50;99.90;;;;;;5134004;27;20607;-69
2023/01/11 09:51:43;;;;;;;0.37;0.30;;;9.40;99.90;;;;;;5142747;27;21410;-69
2023/01/11 09:54:17;;;;;;;0.70;0.23;;;9.50;99.90;;;;;;5131398;27;20623;-69
2023/01/11 09:56:53;;;;;;;0.50;0.40;;;9.60;99.90;;;;;;5141615;27;20625;-69
2023/01/11 09:59:33;;;;;;;0.50;0.30;;;9.60;99.90;;;;;;5143940;27;21193;-69
2023/01/11 10:02:09;;;;;;;0.30;0.20;;;9.60;99.90;;;;;;5138342;27;20623;-69
2023/01/11 10:04:50;;;;;;;2.03;1.20;;;9.70;99.90;;;;;;5138981;27;20636;-69
2023/01/11 10:07:58;;;;;;;0.40;0.20;;;9.60;99.90;;;;;;5148249;27;20662;-68
2023/01/11 10:10:42;;;;;;;0.30;0.20;;;9.60;99.90;;;;;;5123918;27;20723;-68
2023/01/11 10:13:21;;;;;;;0.40;0.30;;;9.60;99.90;;;;;;5138428;27;20662;-68
2023/01/11 10:15:58;;;;;;;0.30;0.20;;;9.60;99.90;;;;;;5148767;27;20613;-69
2023/01/11 10:18:50;;;;;;;0.77;0.40;;;9.60;99.90;;;;;;5144465;27;20622;-69
2023/01/11 10:21:23;;;;;;;0.30;0.20;;;9.70;99.90;;;;;;5119823;27;21186;-69
2023/01/11 10:23:57;;;;;;;0.30;0.20;;;9.70;99.90;;;;;;5146280;27;20624;-69
2023/01/11 10:26:27;;;;;;;0.70;0.70;;;9.70;99.90;;;;;;5138694;27;20656;-69
2023/01/11 10:32:09;;;;;;;3.60;0.40;;;9.70;99.90;;;;;;5135597;27;20632;-69
2023/01/11 10:34:58;;;;;;;0.30;0.20;;;9.80;99.90;;;;;;5138332;27;20637;-69
2023/01/11 10:40:33;;;;;;;0.43;0.37;;;9.90;99.90;;;;;;5134921;27;20619;-68
2023/01/11 10:43:07;;;;;;;0.50;0.43;;;9.80;99.90;;;;;;5151681;27;20618;-69
2023/01/11 10:45:42;;;;;;;1.23;0.50;;;9.80;99.90;;;;;;5150826;27;20610;-68
2023/01/11 10:48:19;;;;;;;0.50;0.40;;;9.80;99.90;;;;;;5150938;27;21402;-69
2023/01/11 10:50:52;;;;;;;1.10;0.60;;;9.90;99.90;;;;;;5151889;27;20649;-68
2023/01/11 10:53:23;;;;;;;0.40;0.40;;;9.90;99.90;;;;;;5148743;27;20658;-69
2023/01/11 10:55:56;;;;;;;0.40;0.20;;;9.90;99.90;;;;;;5151390;27;20617;-69
2023/01/11 10:58:39;;;;;;;1.43;0.60;;;9.90;99.90;;;;;;5141074;27;20757;-69
2023/01/11 11:01:17;;;;;;;0.50;0.40;;;9.90;99.90;;;;;;5135428;27;20733;-69
2023/01/11 11:03:52;;;;;;;0.30;0.30;;;10.00;99.90;;;;;;5144393;27;20629;-68
2023/01/11 11:06:29;;;;;;;0.60;0.50;;;10.00;99.90;;;;;;5149932;27;20629;-69
2023/01/11 11:09:02;;;;;;;1.77;0.50;;;10.00;99.90;;;;;;5140871;27;20618;-69
2023/01/11 11:11:35;;;;;;;0.80;0.50;;;10.00;99.90;;;;;;5130622;27;20622;-69
2023/01/11 11:14:09;;;;;;;1.07;0.70;;;9.90;99.90;;;;;;5130441;27;20661;-69
2023/01/11 11:16:48;;;;;;;0.30;0.20;;;10.10;99.90;;;;;;5130305;27;20625;-69
2023/01/11 11:19:20;;;;;;;0.40;0.27;;;10.00;99.90;;;;;;5145319;27;20623;-69
2023/01/11 11:21:48;;;;;;;0.40;0.20;;;10.00;99.90;;;;;;5151462;27;20714;-69
2023/01/11 11:24:21;;;;;;;0.30;0.30;;;9.90;99.90;;;;;;5150164;27;20620;-69
2023/01/11 11:26:57;;;;;;;0.70;0.70;;;9.90;99.90;;;;;;5137359;27;21221;-69
2023/01/11 11:29:29;;;;;;;0.40;0.20;;;9.90;99.90;;;;;;5133229;27;21085;-69
2023/01/11 11:32:00;;;;;;;1.13;0.43;;;9.90;99.90;;;;;;5130788;27;20708;-69
2023/01/11 11:34:28;;;;;;;0.40;0.33;;;9.90;99.90;;;;;;5130537;27;20662;-69
2023/01/11 11:37:00;;;;;;;1.10;0.60;;;10.00;99.90;;;;;;5136479;27;20629;-69
2023/01/11 11:39:29;;;;;;;0.30;0.20;;;10.00;99.90;;;;;;5138642;27;20730;-69
2023/01/11 11:42:04;;;;;;;1.00;0.60;;;10.10;99.90;;;;;;5129536;27;20623;-70
2023/01/11 11:44:31;;;;;;;0.83;0.70;;;10.20;99.90;;;;;;5130997;27;20626;-69
2023/01/11 11:47:01;;;;;;;0.77;0.40;;;10.20;99.90;;;;;;5130127;27;20618;-69
2023/01/11 11:49:30;;;;;;;0.40;0.20;;;10.10;99.90;;;;;;5129921;27;20653;-69
2023/01/11 11:51:59;;;;;;;0.40;0.40;;;10.10;99.90;;;;;;5130120;27;20671;-69
2023/01/11 11:54:29;;;;;;;0.50;0.40;;;10.30;99.90;;;;;;5129574;27;21559;-69
2023/01/11 11:56:58;;;;;;;3.40;0.47;;;10.30;99.90;;;;;;5144799;27;20618;-69
2023/01/11 11:59:31;;;;;;;0.30;0.20;;;10.30;99.90;;;;;;5149990;27;21057;-69
2023/01/11 12:02:03;;;;;;;0.30;0.20;;;10.30;99.90;;;;;;5149437;27;20781;-69
2023/01/11 12:04:45;;;;;;;0.97;0.40;;;10.20;99.90;;;;;;5148726;27;20621;-68
2023/01/11 12:07:15;;;;;;;0.30;0.30;;;10.20;99.90;;;;;;5147647;27;20633;-69
2023/01/11 12:09:47;;;;;;;0.60;0.40;;;10.20;99.90;;;;;;5131742;27;20618;-68
2023/01/11 12:12:17;;;;;;;0.40;0.40;;;10.20;99.90;;;;;;5132814;27;20625;-69
2023/01/11 12:15:04;;;;;;;0.40;0.33;;;10.20;99.90;;;;;;5130266;27;20670;-69
2023/01/11 12:17:32;;;;;;;0.40;0.40;;;10.20;99.90;;;;;;5130458;27;20614;-70
2023/01/11 12:19:59;;;;;;;0.30;0.30;;;10.20;99.90;;;;;;5141403;27;20622;-69
2023/01/11 12:22:28;;;;;;;0.30;0.30;;;10.10;99.90;;;;;;5145710;27;20662;-69
2023/01/11 12:25:09;;;;;;;0.77;0.60;;;10.20;99.90;;;;;;5142244;27;20954;-69
2023/01/11 12:27:46;;;;;;;0.70;0.40;;;10.20;99.90;;;;;;5146274;27;20618;-69
2023/01/11 12:30:21;;;;;;;0.90;0.63;;;10.20;99.90;;;;;;5129342;27;21429;-69
2023/01/11 12:33:04;;;;;;;0.30;0.30;;;10.20;99.90;;;;;;5130601;27;20661;-69
2023/01/11 12:35:39;;;;;;;0.30;0.23;;;10.20;99.90;;;;;;5129083;27;20623;-68
2023/01/11 12:38:24;;;;;;;0.53;0.40;;;10.20;99.90;;;;;;5143421;27;20636;-69
2023/01/11 12:41:05;;;;;;;0.40;0.30;;;10.20;99.90;;;;;;5133367;27;20638;-69
2023/01/11 12:43:47;;;;;;;0.60;0.60;;;10.20;99.90;;;;;;5147849;27;20638;-69
2023/01/11 12:46:24;;;;;;;2.50;2.30;;;10.20;99.90;;;;;;5148946;27;20630;-69
2023/01/11 12:49:18;;;;;;;0.60;0.50;;;10.20;99.90;;;;;;5146528;27;20633;-69
2023/01/11 12:52:14;;;;;;;0.57;0.53;;;10.20;99.90;;;;;;5120245;27;20631;-68
2023/01/11 12:54:52;;;;;;;0.40;0.37;;;10.10;99.90;;;;;;5127850;27;20659;-68
2023/01/11 12:57:25;;;;;;;0.30;0.20;;;10.10;99.90;;;;;;5148027;27;21330;-69
2023/01/11 13:00:08;;;;;;;15.33;0.60;;;10.10;99.90;;;;;;5146231;27;20716;-68
2023/01/11 13:02:52;;;;;;;0.77;0.77;;;10.10;99.90;;;;;;5145956;27;21061;-69
2023/01/11 13:05:25;;;;;;;0.80;0.60;;;10.00;99.90;;;;;;5139130;27;20704;-69
2023/01/11 13:08:04;;;;;;;0.60;0.50;;;10.00;99.90;;;;;;5147711;27;20981;-70
2023/01/11 13:10:39;;;;;;;0.77;0.43;;;10.00;99.90;;;;;;5128947;27;20625;-70
2023/01/11 13:13:12;;;;;;;0.40;0.33;;;9.90;99.90;;;;;;5128347;27;20646;-69
2023/01/11 13:15:48;;;;;;;0.50;0.50;;;9.90;99.90;;;;;;5131668;27;20997;-69
2023/01/11 13:18:24;;;;;;;0.80;0.67;;;9.90;99.90;;;;;;5142893;27;20626;-70
2023/01/11 13:20:56;;;;;;;0.60;0.60;;;9.90;99.90;;;;;;5138262;27;20642;-70
2023/01/11 13:23:31;;;;;;;1.10;0.60;;;9.90;99.90;;;;;;5148069;27;20622;-69
2023/01/11 13:26:07;;;;;;;0.70;0.70;;;10.10;99.90;;;;;;5140968;27;21169;-68
2023/01/11 13:28:38;;;;;;;1.47;0.50;;;10.00;99.90;;;;;;5137723;27;20617;-69
2023/01/11 13:31:09;;;;;;;0.40;0.40;;;10.00;99.90;;;;;;5141621;27;20615;-69
2023/01/11 13:33:39;;;;;;;0.40;0.30;;;10.00;99.90;;;;;;5146032;27;20661;-69
2023/01/11 13:36:13;;;;;;;0.77;0.67;;;10.00;99.90;;;;;;5137129;27;20615;-68
2023/01/11 13:38:45;;;;;;;0.67;0.67;;;10.00;99.90;;;;;;5131023;27;21186;-69
2023/01/11 13:41:18;;;;;;;0.87;0.70;;;10.00;99.90;;;;;;5128236;27;20729;-69